sensor_id;sensor_type;location;lat;lon;timestamp;P1;durP1;ratioP1;P2;durP2;ratioP2
51614;SDS011;37695;52.960;6.188;2022-08-30T00:01:30;5.05;;;2.97;;
51614;SDS011;37695;52.960;6.188;2022-08-30T00:03:57;3.90;;;2.80;;
51614;SDS011;37695;52.960;6.188;2022-08-30T00:06:24;5.05;;;2.65;;
51614;SDS011;37695;52.960;6.188;2022-08-30T00:08:51;10.38;;;2.80;;
51614;SDS011;37695;52.960;6.188;2022-08-30T00:11:18;6.78;;;3.17;;
51614;SDS011;37695;52.960;6.188;2022-08-30T00:13:49;4.53;;;3.03;;
51614;SDS011;37695;52.960;6.188;2022-08-30T00:16:18;6.05;;;2.80;;
51614;SDS011;37695;52.960;6.188;2022-08-30T00:18:45;4.15;;;2.78;;
51614;SDS011;37695;52.960;6.188;2022-08-30T00:21:11;6.00;;;3.28;;
51614;SDS011;37695;52.960;6.188;2022-08-30T00:23:38;5.50;;;3.25;;
51614;SDS011;37695;52.960;6.188;2022-08-30T00:26:04;5.70;;;3.20;;
51614;SDS011;37695;52.960;6.188;2022-08-30T00:28:31;5.15;;;3.03;;
51614;SDS011;37695;52.960;6.188;2022-08-30T00:30:58;6.30;;;3.05;;
51614;SDS011;37695;52.960;6.188;2022-08-30T00:33:26;4.15;;;2.67;;
51614;SDS011;37695;52.960;6.188;2022-08-30T00:35:52;6.32;;;2.80;;
51614;SDS011;37695;52.960;6.188;2022-08-30T00:38:18;5.57;;;3.00;;
51614;SDS011;37695;52.960;6.188;2022-08-30T00:40:45;6.55;;;3.25;;
51614;SDS011;37695;52.960;6.188;2022-08-30T00:43:13;4.28;;;2.67;;
51614;SDS011;37695;52.960;6.188;2022-08-30T00:45:42;4.07;;;2.75;;
51614;SDS011;37695;52.960;6.188;2022-08-30T00:48:08;4.90;;;2.90;;
51614;SDS011;37695;52.960;6.188;2022-08-30T00:50:35;4.80;;;3.08;;
51614;SDS011;37695;52.960;6.188;2022-08-30T00:53:19;4.95;;;2.88;;
51614;SDS011;37695;52.960;6.188;2022-08-30T00:55:48;6.07;;;3.47;;
51614;SDS011;37695;52.960;6.188;2022-08-30T00:58:16;6.20;;;3.05;;
51614;SDS011;37695;52.960;6.188;2022-08-30T01:00:49;6.53;;;3.20;;
51614;SDS011;37695;52.960;6.188;2022-08-30T01:03:19;4.72;;;2.90;;
51614;SDS011;37695;52.960;6.188;2022-08-30T01:05:45;6.75;;;2.88;;
51614;SDS011;37695;52.960;6.188;2022-08-30T01:08:13;5.35;;;3.17;;
51614;SDS011;37695;52.960;6.188;2022-08-30T01:10:39;5.50;;;3.45;;
51614;SDS011;37695;52.960;6.188;2022-08-30T01:13:06;5.03;;;3.17;;
51614;SDS011;37695;52.960;6.188;2022-08-30T01:15:33;6.75;;;3.58;;
51614;SDS011;37695;52.960;6.188;2022-08-30T01:17:59;7.28;;;3.20;;
51614;SDS011;37695;52.960;6.188;2022-08-30T01:20:28;8.95;;;3.55;;
51614;SDS011;37695;52.960;6.188;2022-08-30T01:23:05;5.80;;;3.53;;
51614;SDS011;37695;52.960;6.188;2022-08-30T01:25:36;5.63;;;3.38;;
51614;SDS011;37695;52.960;6.188;2022-08-30T01:28:04;5.65;;;3.38;;
51614;SDS011;37695;52.960;6.188;2022-08-30T01:30:31;4.93;;;3.40;;
51614;SDS011;37695;52.960;6.188;2022-08-30T01:32:59;4.10;;;2.83;;
51614;SDS011;37695;52.960;6.188;2022-08-30T01:35:27;4.28;;;2.92;;
51614;SDS011;37695;52.960;6.188;2022-08-30T01:37:57;5.00;;;2.80;;
51614;SDS011;37695;52.960;6.188;2022-08-30T01:40:23;4.65;;;2.60;;
51614;SDS011;37695;52.960;6.188;2022-08-30T01:42:48;3.78;;;2.70;;
51614;SDS011;37695;52.960;6.188;2022-08-30T01:45:14;5.15;;;2.70;;
51614;SDS011;37695;52.960;6.188;2022-08-30T01:47:40;4.53;;;2.80;;
51614;SDS011;37695;52.960;6.188;2022-08-30T01:50:07;6.25;;;3.28;;
51614;SDS011;37695;52.960;6.188;2022-08-30T01:52:33;5.50;;;3.53;;
51614;SDS011;37695;52.960;6.188;2022-08-30T01:54:59;4.60;;;3.15;;
51614;SDS011;37695;52.960;6.188;2022-08-30T01:57:26;4.53;;;3.20;;
51614;SDS011;37695;52.960;6.188;2022-08-30T01:59:52;4.60;;;2.88;;
51614;SDS011;37695;52.960;6.188;2022-08-30T02:02:22;4.40;;;3.20;;
51614;SDS011;37695;52.960;6.188;2022-08-30T02:04:52;3.88;;;2.55;;
51614;SDS011;37695;52.960;6.188;2022-08-30T02:07:19;4.63;;;2.90;;
51614;SDS011;37695;52.960;6.188;2022-08-30T02:09:45;6.80;;;3.50;;
51614;SDS011;37695;52.960;6.188;2022-08-30T02:12:11;5.40;;;2.70;;
51614;SDS011;37695;52.960;6.188;2022-08-30T02:14:37;4.28;;;2.80;;
51614;SDS011;37695;52.960;6.188;2022-08-30T02:17:03;4.63;;;3.17;;
51614;SDS011;37695;52.960;6.188;2022-08-30T02:19:31;5.88;;;3.08;;
51614;SDS011;37695;52.960;6.188;2022-08-30T02:21:56;4.60;;;2.95;;
51614;SDS011;37695;52.960;6.188;2022-08-30T02:24:22;5.25;;;2.85;;
51614;SDS011;37695;52.960;6.188;2022-08-30T02:26:48;7.13;;;2.80;;
51614;SDS011;37695;52.960;6.188;2022-08-30T02:29:14;5.28;;;3.08;;
51614;SDS011;37695;52.960;6.188;2022-08-30T02:31:39;4.22;;;2.72;;
51614;SDS011;37695;52.960;6.188;2022-08-30T02:34:05;5.47;;;2.80;;
51614;SDS011;37695;52.960;6.188;2022-08-30T02:36:31;4.82;;;2.30;;
51614;SDS011;37695;52.960;6.188;2022-08-30T02:38:57;3.85;;;2.65;;
51614;SDS011;37695;52.960;6.188;2022-08-30T02:41:23;4.40;;;2.45;;
51614;SDS011;37695;52.960;6.188;2022-08-30T02:43:49;4.80;;;2.85;;
51614;SDS011;37695;52.960;6.188;2022-08-30T02:46:15;4.97;;;2.88;;
51614;SDS011;37695;52.960;6.188;2022-08-30T02:48:41;5.13;;;2.92;;
51614;SDS011;37695;52.960;6.188;2022-08-30T02:51:10;3.83;;;2.72;;
51614;SDS011;37695;52.960;6.188;2022-08-30T02:53:38;2.72;;;1.98;;
51614;SDS011;37695;52.960;6.188;2022-08-30T02:56:05;2.90;;;1.77;;
51614;SDS011;37695;52.960;6.188;2022-08-30T02:58:31;4.95;;;2.58;;
51614;SDS011;37695;52.960;6.188;2022-08-30T03:00:56;4.45;;;2.40;;
51614;SDS011;37695;52.960;6.188;2022-08-30T03:03:22;2.97;;;1.80;;
51614;SDS011;37695;52.960;6.188;2022-08-30T03:05:48;3.72;;;2.00;;
51614;SDS011;37695;52.960;6.188;2022-08-30T03:08:14;2.65;;;2.00;;
51614;SDS011;37695;52.960;6.188;2022-08-30T03:10:40;4.40;;;2.20;;
51614;SDS011;37695;52.960;6.188;2022-08-30T03:13:06;4.97;;;2.55;;
51614;SDS011;37695;52.960;6.188;2022-08-30T03:15:32;3.58;;;2.60;;
51614;SDS011;37695;52.960;6.188;2022-08-30T03:17:59;3.38;;;2.30;;
51614;SDS011;37695;52.960;6.188;2022-08-30T03:20:25;2.42;;;2.10;;
51614;SDS011;37695;52.960;6.188;2022-08-30T03:22:51;4.85;;;2.20;;
51614;SDS011;37695;52.960;6.188;2022-08-30T03:25:17;4.28;;;2.45;;
51614;SDS011;37695;52.960;6.188;2022-08-30T03:27:44;2.15;;;1.75;;
51614;SDS011;37695;52.960;6.188;2022-08-30T03:30:10;2.45;;;1.60;;
51614;SDS011;37695;52.960;6.188;2022-08-30T03:32:37;2.03;;;1.58;;
51614;SDS011;37695;52.960;6.188;2022-08-30T03:35:03;2.75;;;1.52;;
51614;SDS011;37695;52.960;6.188;2022-08-30T03:37:29;2.03;;;1.35;;
51614;SDS011;37695;52.960;6.188;2022-08-30T03:39:55;1.73;;;1.20;;
51614;SDS011;37695;52.960;6.188;2022-08-30T03:42:20;1.67;;;1.38;;
51614;SDS011;37695;52.960;6.188;2022-08-30T03:44:46;1.63;;;1.20;;
51614;SDS011;37695;52.960;6.188;2022-08-30T03:47:12;1.63;;;1.30;;
51614;SDS011;37695;52.960;6.188;2022-08-30T03:49:37;1.50;;;1.30;;
51614;SDS011;37695;52.960;6.188;2022-08-30T03:52:03;1.45;;;1.30;;
51614;SDS011;37695;52.960;6.188;2022-08-30T03:54:29;3.38;;;1.73;;
51614;SDS011;37695;52.960;6.188;2022-08-30T03:56:55;2.85;;;1.60;;
51614;SDS011;37695;52.960;6.188;2022-08-30T03:59:21;2.40;;;1.50;;
51614;SDS011;37695;52.960;6.188;2022-08-30T04:01:47;2.80;;;1.73;;
51614;SDS011;37695;52.960;6.188;2022-08-30T04:04:13;2.53;;;1.90;;
51614;SDS011;37695;52.960;6.188;2022-08-30T04:06:39;2.65;;;2.00;;
51614;SDS011;37695;52.960;6.188;2022-08-30T04:09:04;3.40;;;1.60;;
51614;SDS011;37695;52.960;6.188;2022-08-30T04:11:30;2.35;;;1.85;;
51614;SDS011;37695;52.960;6.188;2022-08-30T04:13:56;3.55;;;2.00;;
51614;SDS011;37695;52.960;6.188;2022-08-30T04:16:22;3.78;;;1.83;;
51614;SDS011;37695;52.960;6.188;2022-08-30T04:18:49;2.15;;;1.70;;
51614;SDS011;37695;52.960;6.188;2022-08-30T04:21:14;2.60;;;1.80;;
51614;SDS011;37695;52.960;6.188;2022-08-30T04:23:40;2.25;;;1.65;;
51614;SDS011;37695;52.960;6.188;2022-08-30T04:26:07;1.75;;;1.60;;
51614;SDS011;37695;52.960;6.188;2022-08-30T04:28:34;2.75;;;1.98;;
51614;SDS011;37695;52.960;6.188;2022-08-30T04:31:00;2.38;;;1.73;;
51614;SDS011;37695;52.960;6.188;2022-08-30T04:33:35;2.88;;;2.00;;
51614;SDS011;37695;52.960;6.188;2022-08-30T04:36:02;2.88;;;2.05;;
51614;SDS011;37695;52.960;6.188;2022-08-30T04:38:30;5.25;;;2.30;;
51614;SDS011;37695;52.960;6.188;2022-08-30T04:40:57;3.88;;;2.30;;
51614;SDS011;37695;52.960;6.188;2022-08-30T04:43:22;4.32;;;1.77;;
51614;SDS011;37695;52.960;6.188;2022-08-30T04:45:50;3.03;;;2.00;;
51614;SDS011;37695;52.960;6.188;2022-08-30T04:48:16;2.05;;;1.70;;
51614;SDS011;37695;52.960;6.188;2022-08-30T04:50:42;6.72;;;2.10;;
51614;SDS011;37695;52.960;6.188;2022-08-30T04:53:08;2.92;;;1.83;;
51614;SDS011;37695;52.960;6.188;2022-08-30T04:55:34;4.22;;;1.98;;
51614;SDS011;37695;52.960;6.188;2022-08-30T04:57:59;6.03;;;2.83;;
51614;SDS011;37695;52.960;6.188;2022-08-30T05:00:25;4.38;;;2.38;;
51614;SDS011;37695;52.960;6.188;2022-08-30T05:02:51;2.63;;;1.90;;
51614;SDS011;37695;52.960;6.188;2022-08-30T05:05:17;4.57;;;2.20;;
51614;SDS011;37695;52.960;6.188;2022-08-30T05:08:01;4.28;;;2.05;;
51614;SDS011;37695;52.960;6.188;2022-08-30T05:10:27;6.47;;;2.15;;
51614;SDS011;37695;52.960;6.188;2022-08-30T05:12:53;4.68;;;2.20;;
51614;SDS011;37695;52.960;6.188;2022-08-30T05:15:20;3.55;;;1.90;;
51614;SDS011;37695;52.960;6.188;2022-08-30T05:17:46;3.63;;;2.10;;
51614;SDS011;37695;52.960;6.188;2022-08-30T05:20:12;4.60;;;2.30;;
51614;SDS011;37695;52.960;6.188;2022-08-30T05:22:39;3.40;;;2.03;;
51614;SDS011;37695;52.960;6.188;2022-08-30T05:25:13;3.00;;;1.92;;
51614;SDS011;37695;52.960;6.188;2022-08-30T05:27:41;1.63;;;1.52;;
51614;SDS011;37695;52.960;6.188;2022-08-30T05:30:07;3.67;;;1.90;;
51614;SDS011;37695;52.960;6.188;2022-08-30T05:32:33;1.67;;;1.38;;
51614;SDS011;37695;52.960;6.188;2022-08-30T05:34:59;2.55;;;1.95;;
51614;SDS011;37695;52.960;6.188;2022-08-30T05:37:24;5.18;;;2.30;;
51614;SDS011;37695;52.960;6.188;2022-08-30T05:39:50;3.45;;;2.08;;
51614;SDS011;37695;52.960;6.188;2022-08-30T05:42:15;4.65;;;2.13;;
51614;SDS011;37695;52.960;6.188;2022-08-30T05:44:41;3.10;;;1.98;;
51614;SDS011;37695;52.960;6.188;2022-08-30T05:47:06;2.25;;;1.77;;
51614;SDS011;37695;52.960;6.188;2022-08-30T05:49:32;3.03;;;2.13;;
51614;SDS011;37695;52.960;6.188;2022-08-30T05:51:58;3.53;;;2.17;;
51614;SDS011;37695;52.960;6.188;2022-08-30T05:54:23;3.90;;;2.30;;
51614;SDS011;37695;52.960;6.188;2022-08-30T05:56:49;2.67;;;1.88;;
51614;SDS011;37695;52.960;6.188;2022-08-30T05:59:14;3.10;;;2.03;;
51614;SDS011;37695;52.960;6.188;2022-08-30T06:01:42;3.33;;;2.25;;
51614;SDS011;37695;52.960;6.188;2022-08-30T06:04:09;3.47;;;2.20;;
51614;SDS011;37695;52.960;6.188;2022-08-30T06:06:37;3.47;;;2.17;;
51614;SDS011;37695;52.960;6.188;2022-08-30T06:09:06;4.28;;;2.35;;
51614;SDS011;37695;52.960;6.188;2022-08-30T06:11:33;3.70;;;2.80;;
51614;SDS011;37695;52.960;6.188;2022-08-30T06:13:59;3.97;;;2.30;;
51614;SDS011;37695;52.960;6.188;2022-08-30T06:16:25;4.05;;;2.95;;
51614;SDS011;37695;52.960;6.188;2022-08-30T06:18:52;4.13;;;2.83;;
51614;SDS011;37695;52.960;6.188;2022-08-30T06:21:20;6.03;;;3.00;;
51614;SDS011;37695;52.960;6.188;2022-08-30T06:26:19;4.13;;;3.03;;
51614;SDS011;37695;52.960;6.188;2022-08-30T06:28:45;5.65;;;3.42;;
51614;SDS011;37695;52.960;6.188;2022-08-30T06:31:12;4.65;;;3.42;;
51614;SDS011;37695;52.960;6.188;2022-08-30T06:33:40;5.47;;;3.83;;
51614;SDS011;37695;52.960;6.188;2022-08-30T06:36:06;6.55;;;4.43;;
51614;SDS011;37695;52.960;6.188;2022-08-30T06:38:37;8.05;;;4.30;;
51614;SDS011;37695;52.960;6.188;2022-08-30T06:41:14;5.93;;;4.30;;
51614;SDS011;37695;52.960;6.188;2022-08-30T06:43:42;9.07;;;4.22;;
51614;SDS011;37695;52.960;6.188;2022-08-30T06:46:08;7.95;;;3.83;;
51614;SDS011;37695;52.960;6.188;2022-08-30T06:48:35;7.70;;;4.22;;
51614;SDS011;37695;52.960;6.188;2022-08-30T06:51:02;6.20;;;3.95;;
51614;SDS011;37695;52.960;6.188;2022-08-30T06:53:28;8.43;;;4.30;;
51614;SDS011;37695;52.960;6.188;2022-08-30T06:56:00;8.57;;;4.15;;
51614;SDS011;37695;52.960;6.188;2022-08-30T06:58:34;6.53;;;3.80;;
51614;SDS011;37695;52.960;6.188;2022-08-30T07:01:01;7.45;;;4.05;;
51614;SDS011;37695;52.960;6.188;2022-08-30T07:03:28;6.40;;;3.80;;
51614;SDS011;37695;52.960;6.188;2022-08-30T07:05:54;8.23;;;3.22;;
51614;SDS011;37695;52.960;6.188;2022-08-30T07:08:21;6.10;;;2.88;;
51614;SDS011;37695;52.960;6.188;2022-08-30T07:10:47;5.82;;;2.90;;
51614;SDS011;37695;52.960;6.188;2022-08-30T07:13:14;6.85;;;2.95;;
51614;SDS011;37695;52.960;6.188;2022-08-30T07:15:43;6.78;;;2.97;;
51614;SDS011;37695;52.960;6.188;2022-08-30T07:18:10;9.15;;;2.80;;
51614;SDS011;37695;52.960;6.188;2022-08-30T07:20:55;4.80;;;2.45;;
51614;SDS011;37695;52.960;6.188;2022-08-30T07:23:21;5.13;;;2.38;;
51614;SDS011;37695;52.960;6.188;2022-08-30T07:25:47;5.20;;;2.67;;
51614;SDS011;37695;52.960;6.188;2022-08-30T07:28:12;5.20;;;2.38;;
51614;SDS011;37695;52.960;6.188;2022-08-30T07:30:39;4.90;;;2.38;;
51614;SDS011;37695;52.960;6.188;2022-08-30T07:33:05;7.50;;;2.10;;
51614;SDS011;37695;52.960;6.188;2022-08-30T07:35:30;3.85;;;2.00;;
51614;SDS011;37695;52.960;6.188;2022-08-30T07:37:56;5.93;;;2.35;;
51614;SDS011;37695;52.960;6.188;2022-08-30T07:40:22;4.18;;;1.95;;
51614;SDS011;37695;52.960;6.188;2022-08-30T07:42:48;4.97;;;2.10;;
51614;SDS011;37695;52.960;6.188;2022-08-30T07:45:14;4.95;;;2.00;;
51614;SDS011;37695;52.960;6.188;2022-08-30T07:47:40;4.68;;;1.95;;
51614;SDS011;37695;52.960;6.188;2022-08-30T07:50:06;5.20;;;2.28;;
51614;SDS011;37695;52.960;6.188;2022-08-30T07:52:33;3.28;;;1.77;;
51614;SDS011;37695;52.960;6.188;2022-08-30T07:54:59;4.57;;;1.83;;
51614;SDS011;37695;52.960;6.188;2022-08-30T07:57:25;2.72;;;1.50;;
51614;SDS011;37695;52.960;6.188;2022-08-30T07:59:51;1.98;;;1.23;;
51614;SDS011;37695;52.960;6.188;2022-08-30T08:02:18;6.13;;;1.67;;
51614;SDS011;37695;52.960;6.188;2022-08-30T08:04:44;2.55;;;1.42;;
51614;SDS011;37695;52.960;6.188;2022-08-30T08:07:10;2.35;;;1.45;;
51614;SDS011;37695;52.960;6.188;2022-08-30T08:09:36;3.15;;;1.60;;
51614;SDS011;37695;52.960;6.188;2022-08-30T08:12:03;3.13;;;1.30;;
51614;SDS011;37695;52.960;6.188;2022-08-30T08:14:31;2.45;;;1.35;;
51614;SDS011;37695;52.960;6.188;2022-08-30T08:16:57;2.10;;;1.17;;
51614;SDS011;37695;52.960;6.188;2022-08-30T08:19:23;2.78;;;1.40;;
51614;SDS011;37695;52.960;6.188;2022-08-30T08:21:48;2.53;;;1.27;;
51614;SDS011;37695;52.960;6.188;2022-08-30T08:24:14;5.18;;;1.40;;
51614;SDS011;37695;52.960;6.188;2022-08-30T08:26:40;3.40;;;1.70;;
51614;SDS011;37695;52.960;6.188;2022-08-30T08:29:07;3.85;;;1.30;;
51614;SDS011;37695;52.960;6.188;2022-08-30T08:31:34;3.70;;;1.55;;
51614;SDS011;37695;52.960;6.188;2022-08-30T08:34:01;2.75;;;1.50;;
51614;SDS011;37695;52.960;6.188;2022-08-30T08:36:29;3.83;;;1.33;;
51614;SDS011;37695;52.960;6.188;2022-08-30T08:38:56;3.58;;;1.60;;
51614;SDS011;37695;52.960;6.188;2022-08-30T08:43:58;2.78;;;1.30;;
51614;SDS011;37695;52.960;6.188;2022-08-30T08:46:28;2.42;;;1.10;;
51614;SDS011;37695;52.960;6.188;2022-08-30T08:49:00;3.10;;;1.60;;
51614;SDS011;37695;52.960;6.188;2022-08-30T08:51:33;4.13;;;1.63;;
51614;SDS011;37695;52.960;6.188;2022-08-30T08:57:20;4.20;;;1.25;;
51614;SDS011;37695;52.960;6.188;2022-08-30T08:59:46;7.18;;;1.50;;
51614;SDS011;37695;52.960;6.188;2022-08-30T09:02:18;4.43;;;1.48;;
51614;SDS011;37695;52.960;6.188;2022-08-30T09:04:50;2.03;;;1.30;;
51614;SDS011;37695;52.960;6.188;2022-08-30T09:07:20;3.17;;;1.48;;
51614;SDS011;37695;52.960;6.188;2022-08-30T09:09:49;1.52;;;1.15;;
51614;SDS011;37695;52.960;6.188;2022-08-30T09:12:14;2.60;;;1.20;;
51614;SDS011;37695;52.960;6.188;2022-08-30T09:14:42;2.08;;;1.25;;
51614;SDS011;37695;52.960;6.188;2022-08-30T09:17:11;2.83;;;1.35;;
51614;SDS011;37695;52.960;6.188;2022-08-30T09:25:00;3.40;;;1.50;;
51614;SDS011;37695;52.960;6.188;2022-08-30T09:29:56;1.60;;;1.00;;
51614;SDS011;37695;52.960;6.188;2022-08-30T09:32:28;2.60;;;1.08;;
51614;SDS011;37695;52.960;6.188;2022-08-30T09:34:56;2.45;;;1.20;;
51614;SDS011;37695;52.960;6.188;2022-08-30T09:37:28;2.22;;;1.40;;
51614;SDS011;37695;52.960;6.188;2022-08-30T09:39:57;2.15;;;1.27;;
51614;SDS011;37695;52.960;6.188;2022-08-30T09:42:25;1.55;;;1.00;;
51614;SDS011;37695;52.960;6.188;2022-08-30T09:44:53;2.80;;;1.40;;
51614;SDS011;37695;52.960;6.188;2022-08-30T09:47:35;2.53;;;1.05;;
51614;SDS011;37695;52.960;6.188;2022-08-30T09:55:28;1.75;;;1.00;;
51614;SDS011;37695;52.960;6.188;2022-08-30T09:58:08;2.97;;;0.93;;
51614;SDS011;37695;52.960;6.188;2022-08-30T10:00:47;2.55;;;1.30;;
51614;SDS011;37695;52.960;6.188;2022-08-30T10:03:25;1.60;;;0.90;;
51614;SDS011;37695;52.960;6.188;2022-08-30T10:06:21;1.52;;;1.10;;
51614;SDS011;37695;52.960;6.188;2022-08-30T10:17:02;3.03;;;1.10;;
51614;SDS011;37695;52.960;6.188;2022-08-30T10:22:18;2.17;;;1.27;;
51614;SDS011;37695;52.960;6.188;2022-08-30T10:24:49;3.22;;;1.50;;
51614;SDS011;37695;52.960;6.188;2022-08-30T10:27:40;1.77;;;1.13;;
51614;SDS011;37695;52.960;6.188;2022-08-30T10:30:14;1.67;;;1.08;;
51614;SDS011;37695;52.960;6.188;2022-08-30T10:35:23;3.28;;;1.30;;
51614;SDS011;37695;52.960;6.188;2022-08-30T10:37:53;6.97;;;1.02;;
51614;SDS011;37695;52.960;6.188;2022-08-30T10:40:37;1.88;;;1.00;;
51614;SDS011;37695;52.960;6.188;2022-08-30T10:44:06;1.55;;;1.17;;
51614;SDS011;37695;52.960;6.188;2022-08-30T10:49:13;1.88;;;1.10;;
51614;SDS011;37695;52.960;6.188;2022-08-30T10:51:50;1.25;;;1.00;;
51614;SDS011;37695;52.960;6.188;2022-08-30T10:57:08;1.65;;;1.00;;
51614;SDS011;37695;52.960;6.188;2022-08-30T10:59:34;2.13;;;1.10;;
51614;SDS011;37695;52.960;6.188;2022-08-30T11:10:29;3.40;;;1.30;;
51614;SDS011;37695;52.960;6.188;2022-08-30T11:13:09;2.47;;;1.20;;
51614;SDS011;37695;52.960;6.188;2022-08-30T11:18:16;2.80;;;0.80;;
51614;SDS011;37695;52.960;6.188;2022-08-30T11:20:49;3.78;;;1.15;;
51614;SDS011;37695;52.960;6.188;2022-08-30T11:25:47;1.50;;;1.00;;
51614;SDS011;37695;52.960;6.188;2022-08-30T11:28:37;2.70;;;1.00;;
51614;SDS011;37695;52.960;6.188;2022-08-30T11:31:05;2.95;;;1.20;;
51614;SDS011;37695;52.960;6.188;2022-08-30T11:33:54;1.02;;;0.90;;
51614;SDS011;37695;52.960;6.188;2022-08-30T11:41:28;1.42;;;1.00;;
51614;SDS011;37695;52.960;6.188;2022-08-30T11:44:10;2.63;;;1.05;;
51614;SDS011;37695;52.960;6.188;2022-08-30T11:46:46;1.02;;;0.80;;
51614;SDS011;37695;52.960;6.188;2022-08-30T12:00:07;2.47;;;0.90;;
51614;SDS011;37695;52.960;6.188;2022-08-30T12:02:54;3.70;;;0.98;;
51614;SDS011;37695;52.960;6.188;2022-08-30T12:13:49;2.00;;;1.00;;
51614;SDS011;37695;52.960;6.188;2022-08-30T12:18:36;2.40;;;1.02;;
51614;SDS011;37695;52.960;6.188;2022-08-30T12:21:04;1.30;;;0.93;;
51614;SDS011;37695;52.960;6.188;2022-08-30T12:23:39;1.48;;;0.90;;
51614;SDS011;37695;52.960;6.188;2022-08-30T12:28:56;3.28;;;1.00;;
51614;SDS011;37695;52.960;6.188;2022-08-30T12:31:38;1.25;;;0.93;;
51614;SDS011;37695;52.960;6.188;2022-08-30T12:34:06;3.53;;;1.08;;
51614;SDS011;37695;52.960;6.188;2022-08-30T12:36:36;1.58;;;0.90;;
51614;SDS011;37695;52.960;6.188;2022-08-30T12:39:12;3.35;;;0.98;;
51614;SDS011;37695;52.960;6.188;2022-08-30T12:41:42;1.80;;;1.05;;
51614;SDS011;37695;52.960;6.188;2022-08-30T12:44:11;1.83;;;1.02;;
51614;SDS011;37695;52.960;6.188;2022-08-30T12:46:40;3.03;;;0.93;;
51614;SDS011;37695;52.960;6.188;2022-08-30T12:49:09;2.20;;;0.98;;
51614;SDS011;37695;52.960;6.188;2022-08-30T12:51:40;2.58;;;1.00;;
51614;SDS011;37695;52.960;6.188;2022-08-30T12:54:11;1.40;;;0.90;;
51614;SDS011;37695;52.960;6.188;2022-08-30T12:57:04;1.38;;;0.88;;
51614;SDS011;37695;52.960;6.188;2022-08-30T13:02:48;2.17;;;1.05;;
51614;SDS011;37695;52.960;6.188;2022-08-30T13:05:29;1.40;;;0.80;;
51614;SDS011;37695;52.960;6.188;2022-08-30T13:13:49;2.22;;;1.10;;
51614;SDS011;37695;52.960;6.188;2022-08-30T13:16:42;1.80;;;0.90;;
51614;SDS011;37695;52.960;6.188;2022-08-30T13:22:05;1.20;;;0.73;;
51614;SDS011;37695;52.960;6.188;2022-08-30T13:24:49;2.25;;;0.60;;
51614;SDS011;37695;52.960;6.188;2022-08-30T13:27:15;2.28;;;1.13;;
51614;SDS011;37695;52.960;6.188;2022-08-30T13:29:40;1.85;;;0.95;;
51614;SDS011;37695;52.960;6.188;2022-08-30T13:32:06;1.58;;;0.90;;
51614;SDS011;37695;52.960;6.188;2022-08-30T13:34:32;4.45;;;1.35;;
51614;SDS011;37695;52.960;6.188;2022-08-30T13:37:01;1.67;;;0.80;;
51614;SDS011;37695;52.960;6.188;2022-08-30T13:39:27;1.40;;;1.10;;
51614;SDS011;37695;52.960;6.188;2022-08-30T13:41:53;1.80;;;0.95;;
51614;SDS011;37695;52.960;6.188;2022-08-30T13:44:20;1.20;;;0.80;;
51614;SDS011;37695;52.960;6.188;2022-08-30T13:46:46;1.00;;;0.70;;
51614;SDS011;37695;52.960;6.188;2022-08-30T13:49:17;1.27;;;0.82;;
51614;SDS011;37695;52.960;6.188;2022-08-30T13:51:45;1.60;;;0.70;;
51614;SDS011;37695;52.960;6.188;2022-08-30T13:54:12;1.88;;;1.10;;
51614;SDS011;37695;52.960;6.188;2022-08-30T13:56:38;1.63;;;0.98;;
51614;SDS011;37695;52.960;6.188;2022-08-30T13:59:04;3.33;;;0.98;;
51614;SDS011;37695;52.960;6.188;2022-08-30T14:01:30;1.60;;;0.95;;
51614;SDS011;37695;52.960;6.188;2022-08-30T14:03:56;2.40;;;1.23;;
51614;SDS011;37695;52.960;6.188;2022-08-30T14:06:21;2.35;;;1.00;;
51614;SDS011;37695;52.960;6.188;2022-08-30T14:08:47;1.58;;;0.95;;
51614;SDS011;37695;52.960;6.188;2022-08-30T14:11:13;2.15;;;0.70;;
51614;SDS011;37695;52.960;6.188;2022-08-30T14:13:40;2.28;;;0.98;;
51614;SDS011;37695;52.960;6.188;2022-08-30T14:16:09;2.50;;;1.13;;
51614;SDS011;37695;52.960;6.188;2022-08-30T14:18:35;1.13;;;0.70;;
51614;SDS011;37695;52.960;6.188;2022-08-30T14:21:01;1.60;;;1.02;;
51614;SDS011;37695;52.960;6.188;2022-08-30T14:23:26;2.55;;;0.90;;
51614;SDS011;37695;52.960;6.188;2022-08-30T14:25:52;1.63;;;1.10;;
51614;SDS011;37695;52.960;6.188;2022-08-30T14:28:18;2.78;;;0.80;;
51614;SDS011;37695;52.960;6.188;2022-08-30T14:30:44;1.35;;;0.85;;
51614;SDS011;37695;52.960;6.188;2022-08-30T14:33:10;2.45;;;1.10;;
51614;SDS011;37695;52.960;6.188;2022-08-30T14:35:35;2.80;;;1.33;;
51614;SDS011;37695;52.960;6.188;2022-08-30T14:38:01;2.22;;;1.10;;
51614;SDS011;37695;52.960;6.188;2022-08-30T14:40:27;2.17;;;0.80;;
51614;SDS011;37695;52.960;6.188;2022-08-30T14:42:53;1.75;;;0.85;;
51614;SDS011;37695;52.960;6.188;2022-08-30T14:45:18;2.83;;;0.85;;
51614;SDS011;37695;52.960;6.188;2022-08-30T14:47:44;3.75;;;0.90;;
51614;SDS011;37695;52.960;6.188;2022-08-30T14:50:10;3.65;;;1.10;;
51614;SDS011;37695;52.960;6.188;2022-08-30T14:52:35;1.35;;;0.82;;
51614;SDS011;37695;52.960;6.188;2022-08-30T14:55:02;1.75;;;0.90;;
51614;SDS011;37695;52.960;6.188;2022-08-30T14:57:30;1.52;;;0.80;;
51614;SDS011;37695;52.960;6.188;2022-08-30T14:59:55;1.10;;;0.80;;
51614;SDS011;37695;52.960;6.188;2022-08-30T15:02:21;2.10;;;0.90;;
51614;SDS011;37695;52.960;6.188;2022-08-30T15:04:46;1.50;;;0.90;;
51614;SDS011;37695;52.960;6.188;2022-08-30T15:07:12;1.85;;;0.90;;
51614;SDS011;37695;52.960;6.188;2022-08-30T15:09:40;2.25;;;0.90;;
51614;SDS011;37695;52.960;6.188;2022-08-30T15:12:07;1.02;;;0.73;;
51614;SDS011;37695;52.960;6.188;2022-08-30T15:14:33;2.33;;;0.90;;
51614;SDS011;37695;52.960;6.188;2022-08-30T15:16:59;1.40;;;0.88;;
51614;SDS011;37695;52.960;6.188;2022-08-30T15:19:26;4.50;;;1.08;;
51614;SDS011;37695;52.960;6.188;2022-08-30T15:21:53;2.50;;;0.80;;
51614;SDS011;37695;52.960;6.188;2022-08-30T15:24:19;1.45;;;0.90;;
51614;SDS011;37695;52.960;6.188;2022-08-30T15:26:46;1.38;;;0.80;;
51614;SDS011;37695;52.960;6.188;2022-08-30T15:29:14;1.23;;;0.60;;
51614;SDS011;37695;52.960;6.188;2022-08-30T15:31:42;1.80;;;0.80;;
51614;SDS011;37695;52.960;6.188;2022-08-30T15:34:11;0.85;;;0.80;;
51614;SDS011;37695;52.960;6.188;2022-08-30T15:36:39;1.42;;;0.77;;
51614;SDS011;37695;52.960;6.188;2022-08-30T15:39:06;0.90;;;0.60;;
51614;SDS011;37695;52.960;6.188;2022-08-30T15:41:32;1.60;;;0.90;;
51614;SDS011;37695;52.960;6.188;2022-08-30T15:44:00;2.55;;;0.90;;
51614;SDS011;37695;52.960;6.188;2022-08-30T15:46:33;1.95;;;1.00;;
51614;SDS011;37695;52.960;6.188;2022-08-30T15:49:02;1.40;;;0.85;;
51614;SDS011;37695;52.960;6.188;2022-08-30T15:51:30;2.70;;;0.95;;
51614;SDS011;37695;52.960;6.188;2022-08-30T15:53:56;1.75;;;0.90;;
51614;SDS011;37695;52.960;6.188;2022-08-30T15:56:22;1.55;;;0.80;;
51614;SDS011;37695;52.960;6.188;2022-08-30T15:58:48;0.93;;;0.63;;
51614;SDS011;37695;52.960;6.188;2022-08-30T16:01:17;2.38;;;1.08;;
51614;SDS011;37695;52.960;6.188;2022-08-30T16:03:43;1.52;;;0.90;;
51614;SDS011;37695;52.960;6.188;2022-08-30T16:06:11;3.67;;;1.00;;
51614;SDS011;37695;52.960;6.188;2022-08-30T16:08:38;1.60;;;0.88;;
51614;SDS011;37695;52.960;6.188;2022-08-30T16:11:06;1.23;;;0.80;;
51614;SDS011;37695;52.960;6.188;2022-08-30T16:13:32;1.75;;;1.00;;
51614;SDS011;37695;52.960;6.188;2022-08-30T16:15:59;1.05;;;0.70;;
51614;SDS011;37695;52.960;6.188;2022-08-30T16:18:26;1.05;;;0.73;;
51614;SDS011;37695;52.960;6.188;2022-08-30T16:21:00;1.25;;;0.70;;
51614;SDS011;37695;52.960;6.188;2022-08-30T16:23:34;3.63;;;0.98;;
51614;SDS011;37695;52.960;6.188;2022-08-30T16:26:00;1.92;;;1.00;;
51614;SDS011;37695;52.960;6.188;2022-08-30T16:28:27;1.08;;;0.80;;
51614;SDS011;37695;52.960;6.188;2022-08-30T16:30:52;1.27;;;0.75;;